sensor_id;sensor_type;location;lat;lon;timestamp;temperature;humidity
44579;DHT22;37422;51.402;0.016;2022-07-09T00:01:04;20.30;70.20
44579;DHT22;37422;51.402;0.016;2022-07-09T00:03:32;20.30;70.40
44579;DHT22;37422;51.402;0.016;2022-07-09T00:05:59;20.20;70.50
44579;DHT22;37422;51.402;0.016;2022-07-09T00:08:30;20.20;70.60
44579;DHT22;37422;51.402;0.016;2022-07-09T00:10:58;20.20;71.60
44579;DHT22;37422;51.402;0.016;2022-07-09T00:13:26;20.20;70.30
44579;DHT22;37422;51.402;0.016;2022-07-09T00:15:53;20.10;70.30
44579;DHT22;37422;51.402;0.016;2022-07-09T00:18:21;20.10;70.70
44579;DHT22;37422;51.402;0.016;2022-07-09T00:20:49;20.10;71.00
44579;DHT22;37422;51.402;0.016;2022-07-09T00:23:17;20.00;71.00
44579;DHT22;37422;51.402;0.016;2022-07-09T00:25:44;20.00;71.20
44579;DHT22;37422;51.402;0.016;2022-07-09T00:28:12;20.00;71.30
44579;DHT22;37422;51.402;0.016;2022-07-09T00:30:39;19.90;71.80
44579;DHT22;37422;51.402;0.016;2022-07-09T00:33:07;19.90;71.90
44579;DHT22;37422;51.402;0.016;2022-07-09T00:35:35;19.90;72.60
44579;DHT22;37422;51.402;0.016;2022-07-09T00:38:16;19.80;72.40
44579;DHT22;37422;51.402;0.016;2022-07-09T00:40:44;19.80;72.60
44579;DHT22;37422;51.402;0.016;2022-07-09T00:43:19;19.70;72.70
44579;DHT22;37422;51.402;0.016;2022-07-09T00:45:47;19.70;73.30
44579;DHT22;37422;51.402;0.016;2022-07-09T00:48:15;19.60;73.00
44579;DHT22;37422;51.402;0.016;2022-07-09T00:50:44;19.60;73.20
44579;DHT22;37422;51.402;0.016;2022-07-09T00:53:14;19.50;73.50
44579;DHT22;37422;51.402;0.016;2022-07-09T00:55:43;19.50;73.90
44579;DHT22;37422;51.402;0.016;2022-07-09T00:58:18;19.40;74.20
44579;DHT22;37422;51.402;0.016;2022-07-09T01:00:47;19.40;74.60
44579;DHT22;37422;51.402;0.016;2022-07-09T01:03:14;19.30;74.50
44579;DHT22;37422;51.402;0.016;2022-07-09T01:05:42;19.30;74.60
44579;DHT22;37422;51.402;0.016;2022-07-09T01:08:10;19.20;74.80
44579;DHT22;37422;51.402;0.016;2022-07-09T01:10:39;19.20;75.00
44579;DHT22;37422;51.402;0.016;2022-07-09T01:13:07;19.20;75.20
44579;DHT22;37422;51.402;0.016;2022-07-09T01:15:35;19.20;75.40
44579;DHT22;37422;51.402;0.016;2022-07-09T01:18:04;19.10;75.30
44579;DHT22;37422;51.402;0.016;2022-07-09T01:20:34;19.10;75.60
44579;DHT22;37422;51.402;0.016;2022-07-09T01:23:02;19.20;75.50
44579;DHT22;37422;51.402;0.016;2022-07-09T01:25:41;19.20;75.40
44579;DHT22;37422;51.402;0.016;2022-07-09T01:28:09;19.20;76.20
44579;DHT22;37422;51.402;0.016;2022-07-09T01:30:40;19.20;75.80
44579;DHT22;37422;51.402;0.016;2022-07-09T01:33:08;19.20;75.80
44579;DHT22;37422;51.402;0.016;2022-07-09T01:35:40;19.20;75.80
44579;DHT22;37422;51.402;0.016;2022-07-09T01:38:08;19.10;75.90
44579;DHT22;37422;51.402;0.016;2022-07-09T01:40:36;19.10;76.10
44579;DHT22;37422;51.402;0.016;2022-07-09T01:43:04;19.10;76.00
44579;DHT22;37422;51.402;0.016;2022-07-09T01:45:32;19.10;76.10
44579;DHT22;37422;51.402;0.016;2022-07-09T01:48:02;19.10;76.30
44579;DHT22;37422;51.402;0.016;2022-07-09T01:50:30;19.10;77.10
44579;DHT22;37422;51.402;0.016;2022-07-09T01:52:57;19.00;76.60
44579;DHT22;37422;51.402;0.016;2022-07-09T01:55:25;19.00;76.90
44579;DHT22;37422;51.402;0.016;2022-07-09T01:57:53;19.00;77.10
44579;DHT22;37422;51.402;0.016;2022-07-09T02:00:21;19.00;77.30
44579;DHT22;37422;51.402;0.016;2022-07-09T02:02:49;19.00;77.40
44579;DHT22;37422;51.402;0.016;2022-07-09T02:05:16;18.90;77.60
44579;DHT22;37422;51.402;0.016;2022-07-09T02:07:44;18.90;78.10
44579;DHT22;37422;51.402;0.016;2022-07-09T02:10:12;18.90;78.00
44579;DHT22;37422;51.402;0.016;2022-07-09T02:12:41;18.90;78.30
44579;DHT22;37422;51.402;0.016;2022-07-09T02:15:09;18.80;78.40
44579;DHT22;37422;51.402;0.016;2022-07-09T02:17:38;18.80;78.60
44579;DHT22;37422;51.402;0.016;2022-07-09T02:20:07;18.80;79.10
44579;DHT22;37422;51.402;0.016;2022-07-09T02:22:36;18.80;79.30
44579;DHT22;37422;51.402;0.016;2022-07-09T02:25:07;18.70;79.70
44579;DHT22;37422;51.402;0.016;2022-07-09T02:27:41;18.70;79.70
44579;DHT22;37422;51.402;0.016;2022-07-09T02:30:09;18.70;80.10
44579;DHT22;37422;51.402;0.016;2022-07-09T02:32:37;18.70;80.20
44579;DHT22;37422;51.402;0.016;2022-07-09T02:35:06;18.60;80.50
44579;DHT22;37422;51.402;0.016;2022-07-09T02:37:35;18.60;80.70
44579;DHT22;37422;51.402;0.016;2022-07-09T02:40:05;18.60;81.10
44579;DHT22;37422;51.402;0.016;2022-07-09T02:42:34;18.50;81.30
44579;DHT22;37422;51.402;0.016;2022-07-09T02:45:05;18.50;81.50
44579;DHT22;37422;51.402;0.016;2022-07-09T02:47:35;18.50;81.70
44579;DHT22;37422;51.402;0.016;2022-07-09T02:50:03;18.40;81.90
44579;DHT22;37422;51.402;0.016;2022-07-09T02:52:31;18.40;83.70
44579;DHT22;37422;51.402;0.016;2022-07-09T02:54:59;18.40;82.10
44579;DHT22;37422;51.402;0.016;2022-07-09T02:57:27;18.40;82.60
44579;DHT22;37422;51.402;0.016;2022-07-09T02:59:54;18.30;82.90
44579;DHT22;37422;51.402;0.016;2022-07-09T03:02:22;18.30;83.40
44579;DHT22;37422;51.402;0.016;2022-07-09T03:04:53;18.30;83.80
44579;DHT22;37422;51.402;0.016;2022-07-09T03:07:22;18.20;84.10
44579;DHT22;37422;51.402;0.016;2022-07-09T03:09:50;18.20;84.40
44579;DHT22;37422;51.402;0.016;2022-07-09T03:12:18;18.20;84.80
44579;DHT22;37422;51.402;0.016;2022-07-09T03:14:46;18.20;85.30
44579;DHT22;37422;51.402;0.016;2022-07-09T03:17:14;18.10;85.60
44579;DHT22;37422;51.402;0.016;2022-07-09T03:19:43;18.10;86.00
44579;DHT22;37422;51.402;0.016;2022-07-09T03:22:10;18.10;86.40
44579;DHT22;37422;51.402;0.016;2022-07-09T03:24:39;18.10;86.90
44579;DHT22;37422;51.402;0.016;2022-07-09T03:27:09;18.00;87.20
44579;DHT22;37422;51.402;0.016;2022-07-09T03:29:36;18.00;87.60
44579;DHT22;37422;51.402;0.016;2022-07-09T03:32:05;18.00;88.10
44579;DHT22;37422;51.402;0.016;2022-07-09T03:34:33;18.00;88.50
44579;DHT22;37422;51.402;0.016;2022-07-09T03:37:02;17.90;89.00
44579;DHT22;37422;51.402;0.016;2022-07-09T03:39:30;17.90;89.20
44579;DHT22;37422;51.402;0.016;2022-07-09T03:41:58;17.90;89.70
44579;DHT22;37422;51.402;0.016;2022-07-09T03:44:26;17.90;89.90
44579;DHT22;37422;51.402;0.016;2022-07-09T03:46:56;17.80;90.10
44579;DHT22;37422;51.402;0.016;2022-07-09T03:49:24;17.80;90.30
44579;DHT22;37422;51.402;0.016;2022-07-09T03:51:52;17.80;90.50
44579;DHT22;37422;51.402;0.016;2022-07-09T03:54:40;17.70;90.60
44579;DHT22;37422;51.402;0.016;2022-07-09T03:57:09;17.70;90.80
44579;DHT22;37422;51.402;0.016;2022-07-09T03:59:38;17.70;91.10
44579;DHT22;37422;51.402;0.016;2022-07-09T04:02:13;17.70;91.30
44579;DHT22;37422;51.402;0.016;2022-07-09T04:04:41;17.60;91.40
44579;DHT22;37422;51.402;0.016;2022-07-09T04:07:12;17.60;91.60
44579;DHT22;37422;51.402;0.016;2022-07-09T04:09:41;17.50;92.00
44579;DHT22;37422;51.402;0.016;2022-07-09T04:12:09;17.50;91.90
44579;DHT22;37422;51.402;0.016;2022-07-09T04:14:36;17.50;92.00
44579;DHT22;37422;51.402;0.016;2022-07-09T04:17:04;17.50;92.30
44579;DHT22;37422;51.402;0.016;2022-07-09T04:19:34;17.40;92.40
44579;DHT22;37422;51.402;0.016;2022-07-09T04:22:04;17.40;92.50
44579;DHT22;37422;51.402;0.016;2022-07-09T04:24:32;17.40;93.30
44579;DHT22;37422;51.402;0.016;2022-07-09T04:27:00;17.40;92.60
44579;DHT22;37422;51.402;0.016;2022-07-09T04:29:28;17.40;92.80
44579;DHT22;37422;51.402;0.016;2022-07-09T04:31:56;17.40;93.00
44579;DHT22;37422;51.402;0.016;2022-07-09T04:34:24;17.40;93.20
44579;DHT22;37422;51.402;0.016;2022-07-09T04:36:51;17.40;93.40
44579;DHT22;37422;51.402;0.016;2022-07-09T04:39:21;17.40;93.50
44579;DHT22;37422;51.402;0.016;2022-07-09T04:41:52;17.40;93.80
44579;DHT22;37422;51.402;0.016;2022-07-09T04:44:20;17.40;93.90
44579;DHT22;37422;51.402;0.016;2022-07-09T04:46:48;17.40;94.10
44579;DHT22;37422;51.402;0.016;2022-07-09T04:49:16;17.40;94.20
44579;DHT22;37422;51.402;0.016;2022-07-09T04:51:43;17.40;94.30
44579;DHT22;37422;51.402;0.016;2022-07-09T04:54:11;17.40;94.50
44579;DHT22;37422;51.402;0.016;2022-07-09T04:56:39;17.40;94.60
44579;DHT22;37422;51.402;0.016;2022-07-09T04:59:07;17.40;94.70
44579;DHT22;37422;51.402;0.016;2022-07-09T05:01:34;17.40;94.80
44579;DHT22;37422;51.402;0.016;2022-07-09T05:04:03;17.40;94.90
44579;DHT22;37422;51.402;0.016;2022-07-09T05:06:31;17.40;95.00
44579;DHT22;37422;51.402;0.016;2022-07-09T05:08:59;17.40;95.10
44579;DHT22;37422;51.402;0.016;2022-07-09T05:11:27;17.40;95.20
44579;DHT22;37422;51.402;0.016;2022-07-09T05:13:54;17.50;95.30
44579;DHT22;37422;51.402;0.016;2022-07-09T05:16:22;17.50;95.40
44579;DHT22;37422;51.402;0.016;2022-07-09T05:18:50;17.50;95.60
44579;DHT22;37422;51.402;0.016;2022-07-09T05:21:18;17.60;95.60
44579;DHT22;37422;51.402;0.016;2022-07-09T05:23:49;17.70;95.60
44579;DHT22;37422;51.402;0.016;2022-07-09T05:26:17;17.80;95.70
44579;DHT22;37422;51.402;0.016;2022-07-09T05:28:45;17.90;95.60
44579;DHT22;37422;51.402;0.016;2022-07-09T05:31:14;18.10;95.60
44579;DHT22;37422;51.402;0.016;2022-07-09T05:34:01;18.30;95.60
44579;DHT22;37422;51.402;0.016;2022-07-09T05:36:29;18.40;95.50
44579;DHT22;37422;51.402;0.016;2022-07-09T05:38:58;18.60;95.40
44579;DHT22;37422;51.402;0.016;2022-07-09T05:41:27;18.70;95.20
44579;DHT22;37422;51.402;0.016;2022-07-09T05:43:56;18.80;95.10
44579;DHT22;37422;51.402;0.016;2022-07-09T05:46:24;18.90;95.00
44579;DHT22;37422;51.402;0.016;2022-07-09T05:48:53;19.00;95.00
44579;DHT22;37422;51.402;0.016;2022-07-09T05:51:21;19.10;95.00
44579;DHT22;37422;51.402;0.016;2022-07-09T05:53:49;19.20;95.00
44579;DHT22;37422;51.402;0.016;2022-07-09T05:56:18;19.40;95.00
44579;DHT22;37422;51.402;0.016;2022-07-09T05:58:49;19.50;94.80
44579;DHT22;37422;51.402;0.016;2022-07-09T06:01:17;19.60;94.80
44579;DHT22;37422;51.402;0.016;2022-07-09T06:03:53;19.70;94.60
44579;DHT22;37422;51.402;0.016;2022-07-09T06:06:21;19.80;94.50
44579;DHT22;37422;51.402;0.016;2022-07-09T06:08:52;19.90;94.40
44579;DHT22;37422;51.402;0.016;2022-07-09T06:11:21;20.00;94.30
44579;DHT22;37422;51.402;0.016;2022-07-09T06:13:54;20.10;94.20
44579;DHT22;37422;51.402;0.016;2022-07-09T06:16:21;20.20;94.20
44579;DHT22;37422;51.402;0.016;2022-07-09T06:18:52;20.30;94.10
44579;DHT22;37422;51.402;0.016;2022-07-09T06:21:20;20.40;93.90
44579;DHT22;37422;51.402;0.016;2022-07-09T06:23:49;20.60;93.90
44579;DHT22;37422;51.402;0.016;2022-07-09T06:26:17;20.70;93.60
44579;DHT22;37422;51.402;0.016;2022-07-09T06:28:45;20.90;93.30
44579;DHT22;37422;51.402;0.016;2022-07-09T06:31:13;21.00;93.00
44579;DHT22;37422;51.402;0.016;2022-07-09T06:33:41;21.20;92.70
44579;DHT22;37422;51.402;0.016;2022-07-09T06:36:09;21.40;92.60
44579;DHT22;37422;51.402;0.016;2022-07-09T06:38:37;21.60;92.40
44579;DHT22;37422;51.402;0.016;2022-07-09T06:41:24;21.90;92.10
44579;DHT22;37422;51.402;0.016;2022-07-09T06:43:52;22.20;91.90
44579;DHT22;37422;51.402;0.016;2022-07-09T06:46:19;22.40;91.70
44579;DHT22;37422;51.402;0.016;2022-07-09T06:48:48;22.60;91.50
44579;DHT22;37422;51.402;0.016;2022-07-09T06:51:15;22.80;91.10
44579;DHT22;37422;51.402;0.016;2022-07-09T06:53:43;22.90;90.90
44579;DHT22;37422;51.402;0.016;2022-07-09T06:56:10;22.80;90.60
44579;DHT22;37422;51.402;0.016;2022-07-09T06:58:38;22.80;90.40
44579;DHT22;37422;51.402;0.016;2022-07-09T07:01:06;22.70;90.50
44579;DHT22;37422;51.402;0.016;2022-07-09T07:03:34;22.60;90.40
44579;DHT22;37422;51.402;0.016;2022-07-09T07:06:04;22.50;90.30
44579;DHT22;37422;51.402;0.016;2022-07-09T07:08:32;22.50;90.40
44579;DHT22;37422;51.402;0.016;2022-07-09T07:11:00;22.40;90.40
44579;DHT22;37422;51.402;0.016;2022-07-09T07:13:28;22.40;90.20
44579;DHT22;37422;51.402;0.016;2022-07-09T07:15:56;22.40;90.50
44579;DHT22;37422;51.402;0.016;2022-07-09T07:18:24;22.50;90.70
44579;DHT22;37422;51.402;0.016;2022-07-09T07:20:52;22.90;91.00
44579;DHT22;37422;51.402;0.016;2022-07-09T07:23:19;23.40;90.60
44579;DHT22;37422;51.402;0.016;2022-07-09T07:25:47;23.70;90.00
44579;DHT22;37422;51.402;0.016;2022-07-09T07:28:15;23.90;88.80
44579;DHT22;37422;51.402;0.016;2022-07-09T07:30:43;24.00;87.50
44579;DHT22;37422;51.402;0.016;2022-07-09T07:33:11;24.00;86.50
44579;DHT22;37422;51.402;0.016;2022-07-09T07:35:38;23.90;85.80
44579;DHT22;37422;51.402;0.016;2022-07-09T07:38:06;23.80;85.40
44579;DHT22;37422;51.402;0.016;2022-07-09T07:40:35;23.60;84.90
44579;DHT22;37422;51.402;0.016;2022-07-09T07:43:03;23.40;85.10
44579;DHT22;37422;51.402;0.016;2022-07-09T07:45:34;23.20;85.30
44579;DHT22;37422;51.402;0.016;2022-07-09T07:48:03;23.10;85.40
44579;DHT22;37422;51.402;0.016;2022-07-09T07:50:31;23.00;85.30
44579;DHT22;37422;51.402;0.016;2022-07-09T07:53:00;22.90;85.40
44579;DHT22;37422;51.402;0.016;2022-07-09T07:55:29;22.80;85.60
44579;DHT22;37422;51.402;0.016;2022-07-09T07:58:00;22.70;85.60
44579;DHT22;37422;51.402;0.016;2022-07-09T08:00:28;22.50;85.60
44579;DHT22;37422;51.402;0.016;2022-07-09T08:02:56;22.50;85.90
44579;DHT22;37422;51.402;0.016;2022-07-09T08:05:28;22.40;86.20
44579;DHT22;37422;51.402;0.016;2022-07-09T08:07:55;22.30;86.40
44579;DHT22;37422;51.402;0.016;2022-07-09T08:10:23;22.30;86.20
44579;DHT22;37422;51.402;0.016;2022-07-09T08:13:02;22.30;86.10
44579;DHT22;37422;51.402;0.016;2022-07-09T08:15:29;22.40;86.00
44579;DHT22;37422;51.402;0.016;2022-07-09T08:17:58;22.50;86.10
44579;DHT22;37422;51.402;0.016;2022-07-09T08:20:29;22.50;85.60
44579;DHT22;37422;51.402;0.016;2022-07-09T08:22:58;22.60;85.40
44579;DHT22;37422;51.402;0.016;2022-07-09T08:25:25;22.60;85.20
44579;DHT22;37422;51.402;0.016;2022-07-09T08:27:54;22.70;85.20
44579;DHT22;37422;51.402;0.016;2022-07-09T08:30:22;22.70;84.80
44579;DHT22;37422;51.402;0.016;2022-07-09T08:32:49;22.70;84.60
44579;DHT22;37422;51.402;0.016;2022-07-09T08:35:18;22.60;84.30
44579;DHT22;37422;51.402;0.016;2022-07-09T08:37:46;22.60;84.20
44579;DHT22;37422;51.402;0.016;2022-07-09T08:40:13;22.60;84.30
44579;DHT22;37422;51.402;0.016;2022-07-09T08:42:42;22.60;84.40
44579;DHT22;37422;51.402;0.016;2022-07-09T08:45:13;22.60;84.50
44579;DHT22;37422;51.402;0.016;2022-07-09T08:47:45;22.80;85.50
44579;DHT22;37422;51.402;0.016;2022-07-09T08:50:15;23.10;84.10
44579;DHT22;37422;51.402;0.016;2022-07-09T08:52:45;23.30;83.70
44579;DHT22;37422;51.402;0.016;2022-07-09T08:55:16;23.40;83.20
44579;DHT22;37422;51.402;0.016;2022-07-09T08:57:44;23.30;82.50
44579;DHT22;37422;51.402;0.016;2022-07-09T09:00:12;23.20;82.30
44579;DHT22;37422;51.402;0.016;2022-07-09T09:02:46;23.20;82.30
44579;DHT22;37422;51.402;0.016;2022-07-09T09:05:15;23.00;82.50
44579;DHT22;37422;51.402;0.016;2022-07-09T09:07:43;22.80;82.60
44579;DHT22;37422;51.402;0.016;2022-07-09T09:10:25;22.60;82.60
44579;DHT22;37422;51.402;0.016;2022-07-09T09:13:00;22.50;83.20
44579;DHT22;37422;51.402;0.016;2022-07-09T09:15:29;22.40;83.30
44579;DHT22;37422;51.402;0.016;2022-07-09T09:18:00;22.40;83.50
44579;DHT22;37422;51.402;0.016;2022-07-09T09:20:30;22.40;83.70
44579;DHT22;37422;51.402;0.016;2022-07-09T09:22:59;22.50;83.90
44579;DHT22;37422;51.402;0.016;2022-07-09T09:25:29;22.60;84.00
44579;DHT22;37422;51.402;0.016;2022-07-09T09:27:58;22.70;83.70
44579;DHT22;37422;51.402;0.016;2022-07-09T09:30:28;22.70;83.30
44579;DHT22;37422;51.402;0.016;2022-07-09T09:33:02;22.70;83.40
44579;DHT22;37422;51.402;0.016;2022-07-09T09:35:33;22.70;83.40
44579;DHT22;37422;51.402;0.016;2022-07-09T09:38:01;22.60;83.30
44579;DHT22;37422;51.402;0.016;2022-07-09T09:40:30;22.50;83.30
44579;DHT22;37422;51.402;0.016;2022-07-09T09:43:02;22.50;83.40
44579;DHT22;37422;51.402;0.016;2022-07-09T09:45:32;22.40;83.60
44579;DHT22;37422;51.402;0.016;2022-07-09T09:48:05;22.50;83.60
44579;DHT22;37422;51.402;0.016;2022-07-09T09:50:37;22.50;83.70
44579;DHT22;37422;51.402;0.016;2022-07-09T09:53:07;22.60;83.50
44579;DHT22;37422;51.402;0.016;2022-07-09T09:55:39;22.70;83.30
44579;DHT22;37422;51.402;0.016;2022-07-09T09:58:09;22.80;83.30
44579;DHT22;37422;51.402;0.016;2022-07-09T10:00:38;22.80;83.30
44579;DHT22;37422;51.402;0.016;2022-07-09T10:03:08;22.90;83.20
44579;DHT22;37422;51.402;0.016;2022-07-09T10:05:41;23.00;82.70
44579;DHT22;37422;51.402;0.016;2022-07-09T10:08:09;23.10;82.70
44579;DHT22;37422;51.402;0.016;2022-07-09T10:10:37;23.30;82.50
44579;DHT22;37422;51.402;0.016;2022-07-09T10:13:04;23.50;82.50
44579;DHT22;37422;51.402;0.016;2022-07-09T10:15:32;23.80;82.00
44579;DHT22;37422;51.402;0.016;2022-07-09T10:18:10;24.20;82.50
44579;DHT22;37422;51.402;0.016;2022-07-09T10:20:43;25.00;80.30
44579;DHT22;37422;51.402;0.016;2022-07-09T10:23:24;25.60;79.60
44579;DHT22;37422;51.402;0.016;2022-07-09T10:25:52;26.20;77.30
44579;DHT22;37422;51.402;0.016;2022-07-09T10:28:25;26.70;78.60
44579;DHT22;37422;51.402;0.016;2022-07-09T10:30:53;27.10;77.30
44579;DHT22;37422;51.402;0.016;2022-07-09T10:33:23;27.40;75.60
44579;DHT22;37422;51.402;0.016;2022-07-09T10:35:52;27.60;74.60
44579;DHT22;37422;51.402;0.016;2022-07-09T10:38:22;27.80;73.90
44579;DHT22;37422;51.402;0.016;2022-07-09T10:40:57;28.00;73.10
44579;DHT22;37422;51.402;0.016;2022-07-09T10:43:50;28.20;71.00
44579;DHT22;37422;51.402;0.016;2022-07-09T10:46:24;28.20;69.10
44579;DHT22;37422;51.402;0.016;2022-07-09T10:49:11;28.20;70.20
44579;DHT22;37422;51.402;0.016;2022-07-09T10:51:55;28.30;70.00
44579;DHT22;37422;51.402;0.016;2022-07-09T10:55:23;28.20;67.70
44579;DHT22;37422;51.402;0.016;2022-07-09T10:57:52;28.10;67.70
44579;DHT22;37422;51.402;0.016;2022-07-09T11:00:21;28.20;69.40
44579;DHT22;37422;51.402;0.016;2022-07-09T11:03:05;28.60;69.10
44579;DHT22;37422;51.402;0.016;2022-07-09T11:05:45;29.30;65.80
44579;DHT22;37422;51.402;0.016;2022-07-09T11:08:17;30.10;66.20
44579;DHT22;37422;51.402;0.016;2022-07-09T11:10:45;30.80;66.30
44579;DHT22;37422;51.402;0.016;2022-07-09T11:13:17;31.40;65.50
44579;DHT22;37422;51.402;0.016;2022-07-09T11:15:49;31.60;63.30
44579;DHT22;37422;51.402;0.016;2022-07-09T11:18:19;31.50;62.30
44579;DHT22;37422;51.402;0.016;2022-07-09T11:20:53;31.10;61.50
44579;DHT22;37422;51.402;0.016;2022-07-09T11:23:21;30.70;61.30
44579;DHT22;37422;51.402;0.016;2022-07-09T11:25:50;30.60;60.90
44579;DHT22;37422;51.402;0.016;2022-07-09T11:28:21;31.00;61.00
44579;DHT22;37422;51.402;0.016;2022-07-09T11:31:03;31.60;60.40
44579;DHT22;37422;51.402;0.016;2022-07-09T11:33:36;32.10;58.40
44579;DHT22;37422;51.402;0.016;2022-07-09T11:36:23;32.40;58.70
44579;DHT22;37422;51.402;0.016;2022-07-09T11:38:53;32.50;58.20
44579;DHT22;37422;51.402;0.016;2022-07-09T11:41:21;32.60;55.50
44579;DHT22;37422;51.402;0.016;2022-07-09T11:43:49;32.60;56.30
44579;DHT22;37422;51.402;0.016;2022-07-09T11:46:21;32.80;56.60
44579;DHT22;37422;51.402;0.016;2022-07-09T11:48:53;32.90;55.00
44579;DHT22;37422;51.402;0.016;2022-07-09T11:51:32;33.00;55.50
44579;DHT22;37422;51.402;0.016;2022-07-09T11:54:03;33.30;54.30
44579;DHT22;37422;51.402;0.016;2022-07-09T11:56:42;33.70;53.80
44579;DHT22;37422;51.402;0.016;2022-07-09T11:59:12;33.90;52.30
44579;DHT22;37422;51.402;0.016;2022-07-09T12:01:40;34.20;53.60
44579;DHT22;37422;51.402;0.016;2022-07-09T12:04:18;34.40;53.50
44579;DHT22;37422;51.402;0.016;2022-07-09T12:06:53;34.50;51.80
44579;DHT22;37422;51.402;0.016;2022-07-09T12:09:28;34.70;52.70
44579;DHT22;37422;51.402;0.016;2022-07-09T12:11:58;34.50;50.90
44579;DHT22;37422;51.402;0.016;2022-07-09T12:14:26;34.00;51.30
44579;DHT22;37422;51.402;0.016;2022-07-09T12:16:57;33.50;51.80
44579;DHT22;37422;51.402;0.016;2022-07-09T12:19:26;33.30;51.80
44579;DHT22;37422;51.402;0.016;2022-07-09T12:21:54;33.40;49.80
44579;DHT22;37422;51.402;0.016;2022-07-09T12:24:25;33.70;51.80
44579;DHT22;37422;51.402;0.016;2022-07-09T12:26:53;33.90;51.70
44579;DHT22;37422;51.402;0.016;2022-07-09T12:29:43;34.00;51.10
44579;DHT22;37422;51.402;0.016;2022-07-09T12:32:13;34.40;50.90
44579;DHT22;37422;51.402;0.016;2022-07-09T12:35:06;34.70;50.80
44579;DHT22;37422;51.402;0.016;2022-07-09T12:37:38;34.90;50.70
44579;DHT22;37422;51.402;0.016;2022-07-09T12:40:11;35.10;50.20
44579;DHT22;37422;51.402;0.016;2022-07-09T12:42:54;35.20;49.60
44579;DHT22;37422;51.402;0.016;2022-07-09T12:45:28;35.20;48.80
44579;DHT22;37422;51.402;0.016;2022-07-09T12:48:09;35.10;47.80
44579;DHT22;37422;51.402;0.016;2022-07-09T12:50:42;34.70;48.80
44579;DHT22;37422;51.402;0.016;2022-07-09T12:53:58;34.50;48.00
44579;DHT22;37422;51.402;0.016;2022-07-09T12:56:43;34.30;48.90
44579;DHT22;37422;51.402;0.016;2022-07-09T12:59:32;34.40;48.80
44579;DHT22;37422;51.402;0.016;2022-07-09T13:02:30;34.50;49.00
44579;DHT22;37422;51.402;0.016;2022-07-09T13:05:03;34.90;48.20
44579;DHT22;37422;51.402;0.016;2022-07-09T13:07:43;35.10;48.20
44579;DHT22;37422;51.402;0.016;2022-07-09T13:10:32;35.30;48.40
44579;DHT22;37422;51.402;0.016;2022-07-09T13:13:09;35.10;48.20
44579;DHT22;37422;51.402;0.016;2022-07-09T13:15:58;34.80;47.60
44579;DHT22;37422;51.402;0.016;2022-07-09T13:23:00;35.00;47.30
44579;DHT22;37422;51.402;0.016;2022-07-09T13:26:30;35.10;46.70
44579;DHT22;37422;51.402;0.016;2022-07-09T13:29:24;35.20;46.00
44579;DHT22;37422;51.402;0.016;2022-07-09T13:32:30;35.20;47.20
44579;DHT22;37422;51.402;0.016;2022-07-09T13:35:01;35.10;46.10
44579;DHT22;37422;51.402;0.016;2022-07-09T13:37:38;35.00;47.30
44579;DHT22;37422;51.402;0.016;2022-07-09T13:40:11;35.00;46.50
44579;DHT22;37422;51.402;0.016;2022-07-09T13:43:23;34.90;46.20
44579;DHT22;37422;51.402;0.016;2022-07-09T13:46:16;34.70;45.80
44579;DHT22;37422;51.402;0.016;2022-07-09T13:50:11;34.80;45.70
44579;DHT22;37422;51.402;0.016;2022-07-09T13:53:54;34.90;47.30
44579;DHT22;37422;51.402;0.016;2022-07-09T13:57:52;35.20;45.30
44579;DHT22;37422;51.402;0.016;2022-07-09T14:00:47;35.30;45.60
44579;DHT22;37422;51.402;0.016;2022-07-09T14:03:35;35.60;45.00
44579;DHT22;37422;51.402;0.016;2022-07-09T14:06:24;35.90;44.90
44579;DHT22;37422;51.402;0.016;2022-07-09T14:14:20;36.20;43.80
44579;DHT22;37422;51.402;0.016;2022-07-09T14:18:30;36.20;44.50
44579;DHT22;37422;51.402;0.016;2022-07-09T14:21:26;36.30;44.90
44579;DHT22;37422;51.402;0.016;2022-07-09T14:24:04;36.20;44.10
44579;DHT22;37422;51.402;0.016;2022-07-09T14:26:46;36.30;44.70
44579;DHT22;37422;51.402;0.016;2022-07-09T14:29:50;36.50;45.10
44579;DHT22;37422;51.402;0.016;2022-07-09T14:36:36;36.60;44.50
44579;DHT22;37422;51.402;0.016;2022-07-09T14:39:11;36.60;44.80
44579;DHT22;37422;51.402;0.016;2022-07-09T14:41:57;36.60;44.60
44579;DHT22;37422;51.402;0.016;2022-07-09T14:45:04;36.40;44.50
44579;DHT22;37422;51.402;0.016;2022-07-09T14:47:56;36.30;44.50
44579;DHT22;37422;51.402;0.016;2022-07-09T14:50:24;36.20;43.90
44579;DHT22;37422;51.402;0.016;2022-07-09T14:52:55;36.30;43.70
44579;DHT22;37422;51.402;0.016;2022-07-09T14:55:30;36.40;43.80
44579;DHT22;37422;51.402;0.016;2022-07-09T14:58:48;36.60;43.90
44579;DHT22;37422;51.402;0.016;2022-07-09T15:01:34;36.80;43.80
44579;DHT22;37422;51.402;0.016;2022-07-09T15:04:59;36.90;43.80
44579;DHT22;37422;51.402;0.016;2022-07-09T15:07:54;36.90;44.00
44579;DHT22;37422;51.402;0.016;2022-07-09T15:10:53;36.80;43.90
44579;DHT22;37422;51.402;0.016;2022-07-09T15:13:29;36.80;43.90
44579;DHT22;37422;51.402;0.016;2022-07-09T15:16:10;36.70;43.90
44579;DHT22;37422;51.402;0.016;2022-07-09T15:18:51;36.80;43.40
44579;DHT22;37422;51.402;0.016;2022-07-09T15:22:03;36.70;42.70
44579;DHT22;37422;51.402;0.016;2022-07-09T15:24:42;36.10;43.10
44579;DHT22;37422;51.402;0.016;2022-07-09T15:27:10;35.40;43.40
44579;DHT22;37422;51.402;0.016;2022-07-09T15:29:53;35.10;44.00
44579;DHT22;37422;51.402;0.016;2022-07-09T15:32:55;35.00;44.20
44579;DHT22;37422;51.402;0.016;2022-07-09T15:35:26;35.10;44.20
44579;DHT22;37422;51.402;0.016;2022-07-09T15:37:56;35.30;44.20
44579;DHT22;37422;51.402;0.016;2022-07-09T15:40:32;35.50;43.90
44579;DHT22;37422;51.402;0.016;2022-07-09T15:43:07;35.70;43.90
44579;DHT22;37422;51.402;0.016;2022-07-09T15:45:35;35.60;43.40
44579;DHT22;37422;51.402;0.016;2022-07-09T15:48:03;35.50;43.30
44579;DHT22;37422;51.402;0.016;2022-07-09T15:50:31;35.40;43.50
44579;DHT22;37422;51.402;0.016;2022-07-09T15:53:18;35.30;43.40
44579;DHT22;37422;51.402;0.016;2022-07-09T15:55:57;35.30;43.40
44579;DHT22;37422;51.402;0.016;2022-07-09T15:58:27;35.30;43.40
44579;DHT22;37422;51.402;0.016;2022-07-09T16:00:59;35.20;43.10
44579;DHT22;37422;51.402;0.016;2022-07-09T16:03:28;35.10;43.00
44579;DHT22;37422;51.402;0.016;2022-07-09T16:05:56;34.80;42.90
44579;DHT22;37422;51.402;0.016;2022-07-09T16:08:31;34.60;42.90
44579;DHT22;37422;51.402;0.016;2022-07-09T16:10:59;34.30;43.10
44579;DHT22;37422;51.402;0.016;2022-07-09T16:13:51;34.20;43.20
44579;DHT22;37422;51.402;0.016;2022-07-09T16:16:20;34.10;43.40
44579;DHT22;37422;51.402;0.016;2022-07-09T16:18:47;33.90;43.30
44579;DHT22;37422;51.402;0.016;2022-07-09T16:21:16;33.70;43.40
44579;DHT22;37422;51.402;0.016;2022-07-09T16:23:44;33.30;43.50